createdAt,value
2023-04-26T00:00:10.164Z,64.42
2023-04-26T00:02:39.056Z,65.78
2023-04-26T00:05:09.938Z,65.28
2023-04-26T00:07:40.302Z,65.15
2023-04-26T00:10:10.709Z,65.52
2023-04-26T00:12:41.256Z,66.43
2023-04-26T00:15:11.513Z,65.57
2023-04-26T00:17:40.178Z,64.84
2023-04-26T00:20:11.955Z,65.27
2023-04-26T00:22:42.081Z,65.23
2023-04-26T00:25:12.669Z,63.89
2023-04-26T00:27:41.378Z,63.73
2023-04-26T00:30:11.801Z,64.04
2023-04-26T00:32:40.597Z,64.19
2023-04-26T00:35:10.887Z,64.91
2023-04-26T00:37:39.529Z,64.92
2023-04-26T00:40:12.146Z,64.98
2023-04-26T00:42:41.445Z,64.43
2023-04-26T00:45:11.032Z,64.08
2023-04-26T00:47:40.056Z,64.44
2023-04-26T00:50:10.662Z,63.79
2023-04-26T00:52:40.769Z,63.31
2023-04-26T00:55:12.124Z,63.68
2023-04-26T00:57:41.850Z,63.70
2023-04-26T01:00:12.321Z,63.92
2023-04-26T01:02:41.716Z,63.80
2023-04-26T01:05:11.480Z,64.37
2023-04-26T01:07:41.054Z,64.31
2023-04-26T01:10:12.548Z,64.92
2023-04-26T01:12:42.198Z,64.63
2023-04-26T01:15:12.600Z,64.15
2023-04-26T01:17:41.328Z,64.20
2023-04-26T01:20:12.154Z,63.99
2023-04-26T01:22:42.803Z,64.03
2023-04-26T01:25:14.047Z,64.22
2023-04-26T01:27:42.848Z,64.36
2023-04-26T01:30:12.740Z,65.04
2023-04-26T01:32:41.418Z,66.37
2023-04-26T01:35:10.817Z,66.49
2023-04-26T01:37:39.601Z,67.07
2023-04-26T01:40:11.868Z,67.57
2023-04-26T01:42:40.561Z,68.39
2023-04-26T01:45:10.034Z,68.96
2023-04-26T01:48:14.149Z,68.58
2023-04-26T01:50:42.925Z,69.06
2023-04-26T01:53:11.600Z,69.88
2023-04-26T01:55:41.713Z,69.81
2023-04-26T01:58:11.477Z,69.96
2023-04-26T02:00:40.260Z,69.44
2023-04-26T02:03:09.003Z,69.82
2023-04-26T02:05:37.874Z,70.13
2023-04-26T02:08:07.818Z,68.99
2023-04-26T02:10:37.042Z,69.63
2023-04-26T02:13:09.243Z,69.48
2023-04-26T02:15:38.099Z,69.35
2023-04-26T02:18:06.926Z,69.93
2023-04-26T02:20:36.231Z,69.42
2023-04-26T02:23:05.333Z,68.81
2023-04-26T02:25:34.166Z,68.70
2023-04-26T02:28:02.897Z,68.25
2023-04-26T02:30:33.170Z,67.98
2023-04-26T02:33:02.601Z,68.42
2023-04-26T02:35:31.602Z,69.00
2023-04-26T02:38:01.052Z,68.21
2023-04-26T02:40:30.289Z,67.65
2023-04-26T02:42:59.038Z,67.48
2023-04-26T02:45:27.967Z,67.17
2023-04-26T02:47:58.083Z,66.67
2023-04-26T02:50:26.772Z,66.45
2023-04-26T02:52:55.647Z,66.70
2023-04-26T02:55:24.782Z,66.49
2023-04-26T02:57:54.404Z,65.86
2023-04-26T03:00:24.308Z,65.83
2023-04-26T03:02:54.359Z,65.60
2023-04-26T03:05:25.747Z,66.21
2023-04-26T03:07:54.649Z,66.09
2023-04-26T03:10:23.362Z,65.95
2023-04-26T03:12:52.044Z,65.94
2023-04-26T03:15:20.853Z,65.41
2023-04-26T03:17:49.777Z,64.68
2023-04-26T03:20:18.830Z,65.29
2023-04-26T03:22:49.931Z,65.30
2023-04-26T03:25:18.914Z,64.72
2023-04-26T03:27:47.837Z,64.18
2023-04-26T03:30:18.068Z,64.53
2023-04-26T03:32:47.512Z,65.02
2023-04-26T03:35:16.561Z,64.58
2023-04-26T03:37:48.494Z,64.19
2023-04-26T03:40:19.896Z,63.81
2023-04-26T03:42:48.617Z,63.98
2023-04-26T03:45:17.870Z,64.28
2023-04-26T03:47:47.442Z,64.84
2023-04-26T03:50:17.214Z,64.90
2023-04-26T03:52:49.451Z,64.66
2023-04-26T03:55:18.762Z,64.77
2023-04-26T03:57:48.341Z,64.74
2023-04-26T04:00:17.840Z,64.78
2023-04-26T04:02:46.780Z,64.72
2023-04-26T04:05:25.885Z,64.72
2023-04-26T04:07:57.425Z,65.04
2023-04-26T04:10:27.320Z,65.18
2023-04-26T04:13:16.897Z,65.35
2023-04-26T04:15:47.437Z,66.25
2023-04-26T04:18:16.384Z,67.57
2023-04-26T04:20:45.922Z,67.96
2023-04-26T04:23:16.578Z,68.06
2023-04-26T04:25:47.649Z,68.60
2023-04-26T04:28:17.148Z,69.09
2023-04-26T04:30:48.203Z,69.17
2023-04-26T04:33:17.830Z,69.54
2023-04-26T04:35:47.152Z,69.48
2023-04-26T04:38:17.606Z,69.80
2023-04-26T04:40:50.226Z,70.38
2023-04-26T04:43:20.223Z,70.86
2023-04-26T04:45:49.392Z,70.57
2023-04-26T04:48:18.738Z,70.02
2023-04-26T04:50:48.731Z,70.32
2023-04-26T04:53:19.349Z,69.23
2023-04-26T04:55:54.528Z,68.51
2023-04-26T04:58:23.443Z,67.72
2023-04-26T05:00:54.240Z,67.43
2023-04-26T05:03:29.273Z,67.78
2023-04-26T05:05:58.445Z,67.42
2023-04-26T05:08:28.625Z,67.16
2023-04-26T05:11:00.715Z,66.87
2023-04-26T05:13:30.344Z,66.90
2023-04-26T05:15:59.149Z,66.36
2023-04-26T05:18:27.939Z,67.05
2023-04-26T05:20:56.676Z,66.67
2023-04-26T05:23:25.522Z,66.57
2023-04-26T05:25:55.657Z,66.04
2023-04-26T05:28:42.560Z,66.78
2023-04-26T05:31:21.619Z,67.30
2023-04-26T05:34:07.548Z,66.58
2023-04-26T05:36:38.725Z,67.13
2023-04-26T05:39:08.276Z,67.17
2023-04-26T05:41:38.323Z,66.51
2023-04-26T05:44:07.140Z,66.63
2023-04-26T05:46:36.131Z,66.80
2023-04-26T05:49:04.899Z,67.11
2023-04-26T05:51:35.452Z,68.12
2023-04-26T05:54:04.215Z,67.22
2023-04-26T05:56:32.964Z,67.49
2023-04-26T05:59:03.165Z,67.75
2023-04-26T06:01:33.036Z,66.24
2023-04-26T06:04:03.463Z,66.47
2023-04-26T06:06:39.653Z,66.94
2023-04-26T06:09:08.763Z,66.73
2023-04-26T06:11:38.599Z,66.91
2023-04-26T06:14:16.827Z,66.05
2023-04-26T06:16:52.241Z,66.01
2023-04-26T06:19:20.898Z,65.71
2023-04-26T06:21:49.971Z,65.26
2023-04-26T06:24:19.334Z,66.05
2023-04-26T06:26:48.216Z,64.66
2023-04-26T06:29:18.579Z,65.00
2023-04-26T06:31:47.431Z,63.63
2023-04-26T06:34:16.277Z,62.75
2023-04-26T06:36:44.977Z,61.78
2023-04-26T06:39:13.689Z,62.02
2023-04-26T06:41:44.583Z,62.17
2023-04-26T06:44:14.106Z,63.15
2023-04-26T06:46:46.314Z,61.78
2023-04-26T06:49:16.619Z,62.78
2023-04-26T06:51:45.319Z,61.95
2023-04-26T06:54:14.583Z,60.68
2023-04-26T06:56:43.651Z,60.80
2023-04-26T06:59:12.335Z,60.84
2023-04-26T07:01:41.281Z,59.92
2023-04-26T07:04:11.763Z,59.95
2023-04-26T07:06:40.850Z,59.21
2023-04-26T07:09:09.524Z,59.68
2023-04-26T07:11:38.230Z,59.67
2023-04-26T07:14:07.022Z,60.29
2023-04-26T07:16:35.838Z,59.58
2023-04-26T07:19:04.661Z,59.09
2023-04-26T07:21:34.762Z,58.97
2023-04-26T07:24:03.825Z,58.69
2023-04-26T07:26:32.590Z,59.90
2023-04-26T07:29:01.295Z,59.52
2023-04-26T07:31:30.108Z,60.10
2023-04-26T07:33:58.882Z,58.22
2023-04-26T07:36:28.012Z,57.99
2023-04-26T07:38:58.202Z,57.95
2023-04-26T07:41:27.036Z,56.95
2023-04-26T07:43:55.816Z,56.35
2023-04-26T07:46:24.485Z,55.62
2023-04-26T07:48:53.208Z,55.58
2023-04-26T07:51:22.183Z,56.33
2023-04-26T07:53:51.101Z,57.75
2023-04-26T07:56:21.447Z,55.19
2023-04-26T07:58:50.159Z,53.63
2023-04-26T08:01:19.163Z,53.79
2023-04-26T08:03:49.201Z,55.82
2023-04-26T08:06:18.192Z,56.76
2023-04-26T08:08:50.928Z,56.13
2023-04-26T08:11:21.902Z,54.08
2023-04-26T08:13:50.894Z,51.22
2023-04-26T08:16:19.959Z,53.08
2023-04-26T08:18:48.917Z,52.66
2023-04-26T08:21:17.642Z,55.14
2023-04-26T08:23:46.533Z,56.00
2023-04-26T08:26:15.220Z,53.42
2023-04-26T08:28:45.257Z,52.88
2023-04-26T08:31:15.822Z,52.90
2023-04-26T08:33:46.465Z,52.92
2023-04-26T08:36:15.443Z,50.41
2023-04-26T08:38:44.069Z,48.59
2023-04-26T08:41:16.033Z,47.86
2023-04-26T08:43:46.570Z,48.24
2023-04-26T08:46:21.067Z,47.87
2023-04-26T08:49:03.061Z,48.85
2023-04-26T08:51:33.449Z,49.76
2023-04-26T08:54:05.656Z,48.99
2023-04-26T08:56:36.038Z,50.13
2023-04-26T08:59:06.581Z,49.36
2023-04-26T09:01:36.161Z,50.37
2023-04-26T09:04:05.459Z,50.79
2023-04-26T09:06:35.150Z,53.38
2023-04-26T09:09:08.076Z,49.85
2023-04-26T09:11:59.765Z,46.69
2023-04-26T09:14:29.996Z,47.40
2023-04-26T09:16:58.922Z,48.25
2023-04-26T09:19:38.154Z,48.92
2023-04-26T09:22:07.551Z,49.35
2023-04-26T09:24:50.359Z,51.60
2023-04-26T09:27:19.528Z,52.92
2023-04-26T09:30:11.086Z,52.54
2023-04-26T09:32:55.971Z,53.88
2023-04-26T09:35:29.310Z,52.43
2023-04-26T09:38:04.279Z,48.43
2023-04-26T09:40:38.624Z,47.23
2023-04-26T09:43:09.728Z,46.57
2023-04-26T09:45:50.236Z,45.47
2023-04-26T09:48:23.030Z,46.25
2023-04-26T09:50:54.471Z,48.77
2023-04-26T09:53:32.139Z,45.65
2023-04-26T09:56:10.976Z,42.60
2023-04-26T09:58:42.206Z,43.00
2023-04-26T10:01:12.729Z,43.10
2023-04-26T10:03:42.888Z,44.15
2023-04-26T10:06:11.960Z,44.91
2023-04-26T10:08:41.143Z,43.28
2023-04-26T10:11:11.657Z,41.02
2023-04-26T10:13:41.652Z,41.22
2023-04-26T10:16:12.369Z,42.62
2023-04-26T10:18:41.176Z,43.50
2023-04-26T10:21:18.030Z,43.32
2023-04-26T10:23:48.484Z,44.20
2023-04-26T10:26:53.365Z,49.28
2023-04-26T10:29:23.364Z,48.09
2023-04-26T10:32:16.753Z,45.78
2023-04-26T10:34:47.311Z,46.22
2023-04-26T10:37:18.326Z,47.71
2023-04-26T10:39:48.691Z,46.02
2023-04-26T10:42:25.661Z,45.33
2023-04-26T10:44:56.187Z,43.57
2023-04-26T10:47:30.756Z,43.00
2023-04-26T10:50:08.863Z,38.60
2023-04-26T10:52:39.403Z,39.52
2023-04-26T10:55:10.373Z,39.44
2023-04-26T10:57:51.386Z,41.24
2023-04-26T11:00:32.822Z,40.94
2023-04-26T11:03:09.597Z,40.23
2023-04-26T11:05:52.115Z,42.35
2023-04-26T11:08:24.855Z,41.75
2023-04-26T11:11:11.946Z,41.47
2023-04-26T11:13:43.082Z,41.83
2023-04-26T11:16:13.521Z,40.88
2023-04-26T11:18:45.843Z,41.48
2023-04-26T11:21:18.133Z,40.06
2023-04-26T11:23:56.450Z,41.68
2023-04-26T11:26:33.083Z,42.01
2023-04-26T11:29:01.810Z,45.67
2023-04-26T11:31:32.742Z,39.85
2023-04-26T11:34:06.030Z,40.29
2023-04-26T11:36:37.156Z,39.23
2023-04-26T11:39:05.937Z,38.92
2023-04-26T11:41:34.574Z,41.11
2023-04-26T11:44:03.266Z,40.78
2023-04-26T11:46:32.310Z,40.10
2023-04-26T11:49:01.450Z,37.75
2023-04-26T11:51:32.314Z,38.00
2023-04-26T11:54:03.411Z,38.49
2023-04-26T11:56:32.170Z,39.56
2023-04-26T11:59:01.974Z,40.80
2023-04-26T12:01:31.779Z,39.86
2023-04-26T12:04:01.760Z,39.13
2023-04-26T12:06:47.193Z,39.21
2023-04-26T12:09:15.899Z,38.29
2023-04-26T12:11:50.717Z,38.19
2023-04-26T12:14:19.363Z,39.22
2023-04-26T12:16:48.818Z,38.75
2023-04-26T12:19:17.529Z,38.83
2023-04-26T12:21:50.557Z,38.84
2023-04-26T12:24:25.356Z,40.64
2023-04-26T12:26:54.488Z,39.75
2023-04-26T12:29:23.284Z,40.93
2023-04-26T12:31:52.024Z,38.95
2023-04-26T12:34:20.711Z,38.86
2023-04-26T12:36:51.060Z,39.75
2023-04-26T12:39:19.686Z,40.23
2023-04-26T12:41:49.209Z,40.48
2023-04-26T12:44:20.352Z,39.84
2023-04-26T12:46:51.356Z,39.00
2023-04-26T12:49:20.075Z,41.23
2023-04-26T12:51:50.180Z,39.13
2023-04-26T12:54:19.761Z,36.91
2023-04-26T12:56:49.556Z,37.44
2023-04-26T12:59:18.416Z,37.01
2023-04-26T13:01:47.642Z,36.85
2023-04-26T13:04:17.093Z,37.78
2023-04-26T13:06:45.927Z,39.80
2023-04-26T13:09:16.636Z,39.74
2023-04-26T13:11:45.671Z,40.89
2023-04-26T13:14:14.575Z,40.45
2023-04-26T13:16:44.012Z,41.16
2023-04-26T13:19:12.875Z,41.67
2023-04-26T13:21:42.107Z,41.51
2023-04-26T13:24:10.875Z,41.82
2023-04-26T13:26:40.976Z,42.29
2023-04-26T13:29:09.893Z,40.16
2023-04-26T13:31:39.982Z,39.63
2023-04-26T13:34:09.786Z,39.95
2023-04-26T13:36:38.567Z,38.74
2023-04-26T13:39:07.514Z,38.31
2023-04-26T13:41:36.899Z,37.68
2023-04-26T13:44:07.418Z,38.36
2023-04-26T13:46:37.491Z,37.48
2023-04-26T13:49:07.098Z,37.72
2023-04-26T13:51:35.821Z,39.60
2023-04-26T13:54:05.993Z,39.77
2023-04-26T13:56:34.844Z,37.88
2023-04-26T13:59:05.456Z,37.14
2023-04-26T14:01:37.392Z,37.90
2023-04-26T14:04:06.843Z,39.25
2023-04-26T14:06:35.974Z,38.73
2023-04-26T14:09:06.957Z,39.59
2023-04-26T14:11:35.769Z,38.25
2023-04-26T14:14:04.681Z,38.53
2023-04-26T14:16:33.402Z,38.48
2023-04-26T14:19:03.584Z,38.92
2023-04-26T14:21:32.810Z,39.36
2023-04-26T14:24:01.808Z,39.30
2023-04-26T14:26:30.908Z,39.68
2023-04-26T14:28:59.827Z,38.75
2023-04-26T14:31:30.388Z,39.37
2023-04-26T14:33:59.359Z,38.07
2023-04-26T14:36:29.502Z,37.80
2023-04-26T14:38:58.193Z,38.13
2023-04-26T14:41:27.364Z,38.21
2023-04-26T14:43:56.610Z,39.33
2023-04-26T14:46:25.459Z,38.86
2023-04-26T14:48:55.477Z,39.26
2023-04-26T14:51:24.434Z,39.61
2023-04-26T14:53:54.874Z,40.54
2023-04-26T14:56:23.820Z,40.78
2023-04-26T14:58:52.535Z,40.74
2023-04-26T15:01:21.346Z,40.51
2023-04-26T15:03:50.292Z,40.78
2023-04-26T15:06:19.047Z,40.50
2023-04-26T15:08:47.852Z,41.63
2023-04-26T15:11:17.950Z,40.72
2023-04-26T15:13:47.314Z,40.74
2023-04-26T15:16:16.969Z,41.77
2023-04-26T15:18:46.093Z,40.74
2023-04-26T15:21:18.593Z,42.09
2023-04-26T15:23:47.947Z,39.95
2023-04-26T15:26:18.262Z,40.31
2023-04-26T15:28:46.943Z,40.19
2023-04-26T15:31:15.878Z,39.66
2023-04-26T15:33:44.676Z,39.74
2023-04-26T15:36:13.289Z,40.37
2023-04-26T15:38:45.392Z,40.72
2023-04-26T15:41:14.126Z,40.68
2023-04-26T15:43:44.422Z,40.98
2023-04-26T15:46:15.643Z,41.00
2023-04-26T15:48:44.346Z,41.82
2023-04-26T15:51:13.125Z,41.91
2023-04-26T15:53:44.136Z,41.72
2023-04-26T15:56:17.099Z,41.74
2023-04-26T15:58:47.987Z,42.07
2023-04-26T16:01:17.358Z,41.20
2023-04-26T16:03:47.718Z,42.02
2023-04-26T16:06:16.966Z,41.67
2023-04-26T16:08:45.771Z,41.53
2023-04-26T16:11:14.640Z,42.10
2023-04-26T16:13:44.748Z,43.62
2023-04-26T16:16:15.072Z,42.13
2023-04-26T16:18:44.412Z,42.74
2023-04-26T16:21:13.508Z,42.79
2023-04-26T16:23:42.747Z,42.70
2023-04-26T16:26:12.032Z,42.11
2023-04-26T16:28:42.756Z,42.98
2023-04-26T16:31:11.889Z,42.93
2023-04-26T16:33:42.079Z,42.19
2023-04-26T16:36:11.018Z,42.83
2023-04-26T16:38:39.967Z,42.76
2023-04-26T16:41:09.119Z,42.40
2023-04-26T16:43:37.985Z,42.68
2023-04-26T16:46:09.400Z,43.21
2023-04-26T16:48:41.562Z,43.86
2023-04-26T16:51:10.668Z,43.05
2023-04-26T16:53:39.451Z,42.46
2023-04-26T16:56:09.487Z,42.83
2023-04-26T16:58:38.381Z,43.51
2023-04-26T17:01:07.970Z,44.41
2023-04-26T17:03:36.923Z,42.76
2023-04-26T17:06:07.932Z,43.26
2023-04-26T17:08:36.932Z,44.55
2023-04-26T17:11:05.767Z,43.35
2023-04-26T17:13:35.092Z,44.11
2023-04-26T17:16:05.878Z,44.59
2023-04-26T17:18:34.559Z,44.09
2023-04-26T17:21:04.110Z,43.26
2023-04-26T17:23:34.686Z,43.70
2023-04-26T17:26:04.394Z,44.46
2023-04-26T17:28:33.329Z,43.91
2023-04-26T17:31:02.050Z,43.85
2023-04-26T17:33:31.620Z,43.82
2023-04-26T17:36:00.963Z,44.02
2023-04-26T17:38:34.497Z,43.64
2023-04-26T17:41:03.707Z,44.80
2023-04-26T17:43:32.675Z,43.69
2023-04-26T17:46:01.774Z,43.70
2023-04-26T17:48:31.053Z,43.56
2023-04-26T17:50:59.750Z,44.43
2023-04-26T17:53:28.665Z,44.68
2023-04-26T17:55:58.787Z,44.95
2023-04-26T17:58:27.849Z,44.49
2023-04-26T18:00:56.599Z,44.41
2023-04-26T18:03:25.811Z,45.03
2023-04-26T18:05:54.687Z,45.97
2023-04-26T18:08:23.435Z,44.80
2023-04-26T18:10:53.947Z,45.02
2023-04-26T18:13:24.332Z,45.60
2023-04-26T18:15:55.949Z,45.43
2023-04-26T18:18:27.258Z,46.29
2023-04-26T18:20:58.590Z,46.72
2023-04-26T18:23:27.450Z,47.03
2023-04-26T18:25:56.702Z,47.44
2023-04-26T18:28:27.160Z,47.64
2023-04-26T18:30:59.580Z,48.39
2023-04-26T18:33:30.544Z,48.48
2023-04-26T18:36:01.900Z,49.82
2023-04-26T18:38:31.575Z,49.68
2023-04-26T18:41:00.660Z,50.76
2023-04-26T18:43:30.980Z,51.34
2023-04-26T18:46:00.061Z,51.34
2023-04-26T18:48:28.933Z,51.20
2023-04-26T18:50:57.802Z,52.19
2023-04-26T18:53:26.705Z,52.63
2023-04-26T18:55:57.452Z,53.82
2023-04-26T18:58:26.267Z,54.16
2023-04-26T19:00:56.650Z,55.67
2023-04-26T19:03:26.948Z,56.07
2023-04-26T19:06:29.604Z,55.98
2023-04-26T19:09:01.735Z,56.07
2023-04-26T19:11:31.137Z,56.40
2023-04-26T19:13:59.849Z,57.22
2023-04-26T19:16:30.260Z,57.45
2023-04-26T19:18:59.211Z,56.71
2023-04-26T19:21:27.977Z,56.93
2023-04-26T19:23:56.687Z,56.47
2023-04-26T19:26:25.819Z,56.42
2023-04-26T19:28:55.825Z,55.90
2023-04-26T19:31:25.189Z,56.53
2023-04-26T19:33:55.224Z,56.57
2023-04-26T19:36:24.757Z,56.25
2023-04-26T19:38:53.901Z,56.76
2023-04-26T19:41:23.961Z,58.01
2023-04-26T19:43:52.717Z,58.56
2023-04-26T19:46:21.387Z,58.31
2023-04-26T19:48:50.009Z,58.17
2023-04-26T19:51:20.135Z,58.80
2023-04-26T19:53:48.848Z,59.88
2023-04-26T19:56:17.587Z,60.23
2023-04-26T19:58:46.190Z,60.59
2023-04-26T20:01:15.219Z,60.84
2023-04-26T20:03:47.358Z,60.95
2023-04-26T20:06:16.684Z,60.75
2023-04-26T20:08:46.812Z,60.59
2023-04-26T20:11:16.889Z,61.09
2023-04-26T20:13:46.631Z,61.55
2023-04-26T20:16:15.352Z,61.70
2023-04-26T20:18:44.522Z,61.76
2023-04-26T20:21:13.179Z,62.42
2023-04-26T20:23:42.642Z,62.71
2023-04-26T20:26:12.677Z,62.44
2023-04-26T20:28:41.337Z,61.65
2023-04-26T20:31:10.152Z,62.25
2023-04-26T20:33:38.848Z,62.21
2023-04-26T20:36:07.944Z,61.47
2023-04-26T20:38:36.662Z,61.12
2023-04-26T20:41:05.376Z,62.17
2023-04-26T20:43:35.413Z,62.61
2023-04-26T20:46:04.325Z,63.42
2023-04-26T20:48:33.082Z,63.28
2023-04-26T20:51:02.905Z,62.29
2023-04-26T20:53:31.609Z,62.61
2023-04-26T20:56:00.306Z,62.86
2023-04-26T20:58:29.843Z,63.00
2023-04-26T21:00:59.998Z,62.44
2023-04-26T21:03:32.672Z,61.77
2023-04-26T21:06:01.449Z,61.35
2023-04-26T21:08:30.130Z,63.39
2023-04-26T21:10:58.948Z,63.08
2023-04-26T21:13:29.624Z,62.86
2023-04-26T21:16:00.080Z,62.02
2023-04-26T21:18:28.792Z,63.13
2023-04-26T21:20:57.899Z,63.48
2023-04-26T21:23:26.762Z,62.77
2023-04-26T21:25:55.375Z,62.48
2023-04-26T21:28:24.131Z,63.03
2023-04-26T21:31:04.965Z,63.42
2023-04-26T21:33:34.510Z,62.73
2023-04-26T21:36:03.309Z,63.63
2023-04-26T21:38:32.044Z,64.51
2023-04-26T21:41:00.735Z,64.55
2023-04-26T21:43:29.434Z,64.30
2023-04-26T21:45:59.003Z,64.81
2023-04-26T21:48:29.169Z,64.05
2023-04-26T21:50:57.976Z,63.78
2023-04-26T21:53:27.211Z,63.45
2023-04-26T21:55:56.100Z,63.89
2023-04-26T21:58:24.895Z,64.08
2023-04-26T22:00:53.662Z,63.65
2023-04-26T22:03:22.599Z,63.71
2023-04-26T22:05:52.750Z,64.26
2023-04-26T22:08:21.427Z,65.07
2023-04-26T22:10:50.121Z,65.64
2023-04-26T22:13:18.934Z,64.74
2023-04-26T22:15:47.621Z,64.88
2023-04-26T22:18:16.517Z,64.96
2023-04-26T22:20:45.266Z,65.65
2023-04-26T22:23:15.549Z,65.61
2023-04-26T22:25:44.242Z,65.95
2023-04-26T22:28:12.978Z,65.80
2023-04-26T22:30:41.805Z,66.16
2023-04-26T22:33:12.374Z,66.01
2023-04-26T22:35:41.690Z,65.24
2023-04-26T22:38:10.349Z,64.43
2023-04-26T22:40:40.455Z,63.92
2023-04-26T22:43:09.207Z,63.59
2023-04-26T22:45:37.958Z,63.28
2023-04-26T22:48:06.922Z,64.35
2023-04-26T22:50:35.707Z,65.81
2023-04-26T22:53:04.405Z,66.45
2023-04-26T22:55:33.064Z,65.56
2023-04-26T22:58:03.223Z,65.62
2023-04-26T23:00:31.888Z,65.41
2023-04-26T23:03:00.708Z,65.13
2023-04-26T23:05:29.457Z,64.92
2023-04-26T23:07:58.240Z,64.74
2023-04-26T23:10:27.367Z,65.75
2023-04-26T23:12:56.486Z,65.47
2023-04-26T23:15:27.100Z,65.46
2023-04-26T23:17:55.815Z,66.29
2023-04-26T23:20:25.168Z,67.03
2023-04-26T23:22:53.868Z,67.20
2023-04-26T23:25:22.709Z,68.02
2023-04-26T23:27:51.371Z,67.70
2023-04-26T23:30:20.589Z,67.52
2023-04-26T23:32:50.757Z,66.44
2023-04-26T23:35:19.588Z,65.78
2023-04-26T23:37:48.306Z,65.32
2023-04-26T23:40:17.305Z,65.86
2023-04-26T23:42:46.020Z,65.65
2023-04-26T23:45:14.759Z,65.89
2023-04-26T23:47:43.477Z,66.53
2023-04-26T23:50:13.834Z,66.98
2023-04-26T23:52:42.601Z,67.60
2023-04-26T23:55:12.189Z,67.48
2023-04-26T23:57:40.845Z,67.00
